Time;durP1;ratioP1;P1;durP2;ratioP2;P2;SDS_P1;SDS_P2;PMS_P1;PMS_P2;Temp;Humidity;BMP_temperature;BMP_pressure;BME280_temperature;BME280_humidity;BME280_pressure;Samples;Min_cycle;Max_cycle;Signal;HPM_P1;HPM_P2
2022/10/31 00:01:38;;;;;;;3.97;1.15;;;4.60;1.00;;;-147.47;100.00;69272.31;5097409;28;31419;-70
2022/10/31 00:04:07;;;;;;;4.80;1.08;;;4.60;1.00;;;-147.47;100.00;69272.31;5095399;28;31953;-69
2022/10/31 00:06:37;;;;;;;3.58;1.00;;;4.50;1.00;;;-147.47;100.00;69272.31;5095298;28;33353;-70
2022/10/31 00:09:06;;;;;;;3.55;1.08;;;4.50;1.00;;;-147.47;100.00;69272.31;5085513;28;32123;-69
2022/10/31 00:11:34;;;;;;;2.55;1.20;;;4.50;1.00;;;-147.47;100.00;69272.31;5094835;28;31533;-69
2022/10/31 00:14:04;;;;;;;4.78;1.75;;;4.40;1.00;;;-147.47;100.00;69272.31;5095032;28;31275;-68
2022/10/31 00:16:32;;;;;;;3.22;1.08;;;4.40;1.00;;;-147.47;100.00;69272.31;5094079;28;32995;-69
2022/10/31 00:19:04;;;;;;;4.38;1.30;;;4.30;1.00;;;-147.47;100.00;69272.31;5094826;28;32934;-69
2022/10/31 00:21:34;;;;;;;3.40;1.23;;;4.40;1.00;;;-147.47;100.00;69272.31;5094941;28;31598;-69
2022/10/31 00:24:05;;;;;;;3.95;1.10;;;4.30;1.00;;;-147.47;100.00;69272.31;5095028;28;32449;-69
2022/10/31 00:26:34;;;;;;;3.22;1.02;;;4.30;1.00;;;-147.47;100.00;69272.31;5096832;28;31407;-71
2022/10/31 00:29:02;;;;;;;2.88;1.30;;;4.30;1.00;;;-147.47;100.00;69272.31;5094792;28;31914;-69
2022/10/31 00:31:31;;;;;;;2.90;1.48;;;4.20;1.00;;;-147.47;100.00;69272.31;5094854;28;32352;-70
2022/10/31 00:34:02;;;;;;;2.47;1.10;;;4.20;1.00;;;-147.47;100.00;69272.31;5096595;28;31095;-69
2022/10/31 00:36:31;;;;;;;2.35;1.20;;;4.20;1.00;;;-147.47;100.00;69272.31;5094823;28;33164;-69
2022/10/31 00:39:01;;;;;;;2.75;1.20;;;4.10;1.00;;;-147.47;100.00;69272.31;5094598;28;32041;-70
2022/10/31 00:41:31;;;;;;;8.55;1.70;;;4.00;1.00;;;-147.47;100.00;69272.31;5096458;28;31346;-70
2022/10/31 00:43:59;;;;;;;3.63;1.05;;;3.90;1.00;;;-147.47;100.00;69272.31;5079591;28;29963;-70
2022/10/31 00:46:28;;;;;;;2.67;1.17;;;4.00;1.00;;;-147.47;100.00;69272.31;5093298;28;32463;-69
2022/10/31 00:48:56;;;;;;;2.35;1.00;;;4.00;1.00;;;-147.47;100.00;69272.31;5096510;28;32757;-70
2022/10/31 00:51:25;;;;;;;2.75;1.10;;;4.00;1.00;;;-147.47;100.00;69272.31;5093263;28;32473;-70
2022/10/31 00:53:53;;;;;;;2.30;0.90;;;3.90;1.00;;;-147.47;100.00;69272.31;5079490;28;31317;-69
2022/10/31 00:56:22;;;;;;;3.53;1.25;;;3.90;1.00;;;-147.47;100.00;69272.31;5079546;28;31869;-69
2022/10/31 00:58:52;;;;;;;3.92;1.15;;;3.90;1.00;;;-147.47;100.00;69272.31;5094480;28;31983;-69
2022/10/31 01:01:21;;;;;;;5.53;1.30;;;3.80;1.00;;;-147.47;100.00;69272.31;5091836;28;31847;-69
2022/10/31 01:03:51;;;;;;;5.40;1.20;;;4.00;1.00;;;-147.47;100.00;69272.31;5092914;28;32279;-69
2022/10/31 01:06:20;;;;;;;4.22;1.48;;;4.00;1.00;;;-147.47;100.00;69272.31;5109997;28;32043;-69
2022/10/31 01:08:49;;;;;;;2.95;1.25;;;4.00;1.00;;;-147.47;100.00;69272.31;5096376;28;32009;-70
2022/10/31 01:11:21;;;;;;;4.18;1.40;;;3.90;1.00;;;-147.47;100.00;69272.31;5079382;28;30661;-69
2022/10/31 01:13:53;;;;;;;3.67;1.10;;;3.90;1.00;;;-147.47;100.00;69272.31;5094274;28;31496;-70
2022/10/31 01:16:25;;;;;;;3.75;1.58;;;3.70;1.00;;;-147.47;100.00;69272.31;5096146;28;34683;-69
2022/10/31 01:18:54;;;;;;;2.80;1.25;;;3.60;1.00;;;-147.47;100.00;69272.31;5092838;28;31842;-71
2022/10/31 01:21:24;;;;;;;3.65;1.38;;;3.60;1.00;;;-147.47;100.00;69272.31;5094179;28;33040;-69
2022/10/31 01:23:55;;;;;;;4.28;1.27;;;3.60;1.00;;;-147.47;100.00;69272.31;5096158;28;31060;-69
2022/10/31 01:26:26;;;;;;;3.47;1.42;;;3.50;1.00;;;-147.47;100.00;69272.31;5094135;28;34068;-70
2022/10/31 01:28:59;;;;;;;2.85;1.20;;;3.50;1.00;;;-147.47;100.00;69272.31;5092366;28;32068;-69
2022/10/31 01:31:31;;;;;;;2.88;1.20;;;3.50;1.00;;;-147.47;100.00;69272.31;5094039;28;32601;-69
2022/10/31 01:34:00;;;;;;;3.92;1.30;;;3.50;1.00;;;-147.47;100.00;69272.31;5078792;28;30940;-69
2022/10/31 01:36:31;;;;;;;3.70;1.15;;;3.50;1.00;;;-147.47;100.00;69272.31;5109678;28;32205;-70
2022/10/31 01:39:03;;;;;;;5.15;1.52;;;3.50;1.00;;;-147.47;100.00;69272.31;5095930;28;32172;-70
2022/10/31 01:41:35;;;;;;;5.05;1.75;;;3.50;1.00;;;-147.47;100.00;69272.31;5095824;28;32426;-69
2022/10/31 01:44:54;;;;;;;6.28;1.40;;;3.50;1.00;;;-147.47;100.00;69272.31;5096038;28;30701;-69
2022/10/31 01:47:43;;;;;;;4.22;1.10;;;3.50;1.00;;;-147.47;100.00;69272.31;5092645;28;32389;-72
2022/10/31 01:50:27;;;;;;;3.65;1.30;;;3.60;1.00;;;-147.47;100.00;69272.31;5092534;28;32430;-70
2022/10/31 01:52:56;;;;;;;5.13;1.50;;;3.60;1.00;;;-147.47;100.00;69272.31;5109687;28;31772;-70
2022/10/31 01:55:29;;;;;;;6.07;1.40;;;3.50;1.00;;;-147.47;100.00;69272.31;5092374;28;31646;-70
2022/10/31 01:58:03;;;;;;;3.60;1.20;;;3.60;1.00;;;-147.47;100.00;69272.31;5095570;28;33460;-71
2022/10/31 02:00:33;;;;;;;1.98;1.08;;;3.50;1.00;;;-147.47;100.00;69272.31;5092368;28;32002;-69
2022/10/31 02:03:01;;;;;;;5.03;1.20;;;3.50;1.00;;;-147.47;100.00;69272.31;5095486;28;30950;-70
2022/10/31 02:05:33;;;;;;;2.92;1.30;;;3.50;1.00;;;-147.47;100.00;69272.31;5095597;28;30047;-71
2022/10/31 02:08:08;;;;;;;3.30;1.20;;;3.50;1.00;;;-147.47;100.00;69272.31;5093499;28;33329;-70
2022/10/31 02:10:38;;;;;;;4.85;1.23;;;3.50;1.00;;;-147.47;100.00;69272.31;5092334;28;32917;-70
2022/10/31 02:13:08;;;;;;;6.40;1.35;;;3.50;1.00;;;-147.47;100.00;69272.31;5112422;28;32266;-70
2022/10/31 02:15:50;;;;;;;2.35;1.15;;;3.50;1.00;;;-147.47;100.00;69272.31;5095511;28;32882;-70
2022/10/31 02:18:19;;;;;;;4.82;1.40;;;3.50;1.00;;;-147.47;100.00;69272.31;5093384;28;32510;-70
2022/10/31 02:21:05;;;;;;;3.53;1.55;;;3.40;1.00;;;-147.47;100.00;69272.31;5095462;28;31577;-70
2022/10/31 02:24:29;;;;;;;5.07;1.45;;;3.40;1.00;;;-147.47;100.00;69272.31;5092375;28;32528;-70
2022/10/31 02:27:29;;;;;;;3.78;1.50;;;3.40;1.00;;;-147.47;100.00;69272.31;5112218;28;32040;-71
2022/10/31 02:30:08;;;;;;;3.88;1.23;;;3.40;1.00;;;-147.47;100.00;69272.31;5091871;28;33485;-70
2022/10/31 02:33:23;;;;;;;4.75;1.67;;;3.40;1.00;;;-147.47;100.00;69272.31;5095321;28;31500;-70
2022/10/31 02:36:05;;;;;;;2.42;1.20;;;3.40;1.00;;;-147.47;100.00;69272.31;5102601;28;32205;-69
2022/10/31 02:38:51;;;;;;;4.15;1.60;;;3.40;1.00;;;-147.47;100.00;69272.31;5094888;28;31655;-70
2022/10/31 02:41:44;;;;;;;4.03;1.33;;;3.40;1.00;;;-147.47;100.00;69272.31;5098394;28;31952;-70
2022/10/31 02:44:22;;;;;;;5.63;1.67;;;3.30;1.00;;;-147.47;100.00;69272.31;5098406;28;32413;-72
2022/10/31 02:46:55;;;;;;;2.47;1.42;;;3.30;3.30;;;-147.47;100.00;69272.31;5112190;28;31933;-71
2022/10/31 02:49:33;;;;;;;6.45;1.98;;;3.20;1.40;;;-147.47;100.00;69272.31;5096359;28;31480;-70
2022/10/31 02:52:02;;;;;;;4.75;1.65;;;3.20;10.30;;;-147.47;100.00;69272.31;5096465;28;33364;-72
2022/10/31 02:54:32;;;;;;;5.78;1.58;;;3.20;8.60;;;-147.47;100.00;69272.31;5098425;28;31399;-73
2022/10/31 02:57:08;;;;;;;10.00;1.80;;;3.20;19.60;;;-147.47;100.00;69272.31;5095071;28;32521;-71
2022/10/31 02:59:41;;;;;;;6.82;1.90;;;3.30;24.70;;;-147.47;100.00;69272.31;5095024;28;31570;-71
2022/10/31 03:02:38;;;;;;;5.60;1.60;;;3.30;21.80;;;-147.47;100.00;69272.31;5094940;28;32527;-70
2022/10/31 03:05:34;;;;;;;;;;;3.30;20.60;;;-147.47;100.00;69272.31;5095548;28;31955;-70
2022/10/31 03:08:11;;;;;;;5.80;1.75;;;3.20;32.60;;;-147.47;100.00;69272.31;5094941;28;32893;-69
2022/10/31 03:10:48;;;;;;;3.90;1.70;;;3.20;44.90;;;-147.47;100.00;69272.31;5094847;28;31406;-71
2022/10/31 03:13:30;;;;;;;5.38;1.63;;;3.20;34.40;;;-147.47;100.00;69272.31;5094612;28;32549;-69
2022/10/31 03:16:10;;;;;;;4.97;1.88;;;3.10;45.60;;;-147.47;100.00;69272.31;5098536;28;32016;-71
2022/10/31 03:18:43;;;;;;;5.82;1.65;;;3.10;56.30;;;-147.47;100.00;69272.31;5081091;28;30542;-71
2022/10/31 03:21:20;;;;;;;5.53;1.95;;;3.10;56.30;;;-147.47;100.00;69272.31;5094910;28;31444;-71
2022/10/31 03:23:52;;;;;;;3.47;1.85;;;3.10;55.70;;;-147.47;100.00;69272.31;5087437;28;164821;-70
2022/10/31 03:26:24;;;;;;;8.55;2.17;;;3.10;67.00;;;-147.47;100.00;69272.31;5076667;28;311300;-71
2022/10/31 03:28:58;;;;;;;5.47;2.00;;;3.10;67.40;;;-147.47;100.00;69272.31;5105079;28;40561;-71
2022/10/31 03:31:32;;;;;;;5.82;1.75;;;3.10;66.60;;;-147.47;100.00;69272.31;5086669;28;39973;-70
2022/10/31 03:34:03;;;;;;;5.72;1.98;;;3.10;71.90;;;-147.47;100.00;69272.31;5105576;28;41527;-69
2022/10/31 03:36:36;;;;;;;5.35;1.60;;;3.00;70.50;;;-147.47;100.00;69272.31;5087836;28;42048;-69
2022/10/31 03:39:09;;;;;;;4.80;2.05;;;2.90;74.90;;;-147.47;100.00;69272.31;4214797;28;19381285;-70
2022/10/31 03:41:46;;;;;;;6.65;2.08;;;2.90;91.80;;;-147.47;100.00;69272.31;5061804;28;1098578;-71
2022/10/31 03:44:20;;;;;;;5.23;2.10;;;2.90;87.00;;;-147.47;100.00;69272.31;5071365;28;40659;-70
2022/10/31 03:46:56;;;;;;;7.20;2.83;;;2.90;91.80;;;-147.47;100.00;69272.31;5088146;28;39202;-71
2022/10/31 03:49:25;;;;;;;6.15;2.60;;;2.90;92.60;;;-147.47;100.00;69272.31;5087955;28;41673;-71
2022/10/31 03:52:00;;;;;;;8.35;2.47;;;2.80;92.40;;;-147.47;100.00;69272.31;5084746;28;41326;-71
2022/10/31 03:54:39;;;;;;;8.05;2.70;;;2.90;99.90;;;-147.47;100.00;69272.31;5088018;28;41174;-71
2022/10/31 03:57:16;;;;;;;4.95;2.05;;;2.80;95.80;;;-147.47;100.00;69272.31;5086052;28;40063;-71
2022/10/31 03:59:50;;;;;;;4.63;2.30;;;2.90;99.90;;;-147.47;100.00;69272.31;4996851;28;2370203;-70
2022/10/31 04:02:23;;;;;;;7.13;2.65;;;2.80;99.90;;;-147.47;100.00;69272.31;5084781;28;41484;-72
2022/10/31 04:04:53;;;;;;;7.43;2.17;;;2.80;99.90;;;-147.47;100.00;69272.31;5104484;28;40124;-69
2022/10/31 04:07:26;;;;;;;6.28;2.58;;;2.70;99.90;;;-147.47;100.00;69272.31;5084595;28;40931;-71
2022/10/31 04:09:57;;;;;;;6.22;2.40;;;2.70;99.90;;;-147.47;100.00;69272.31;5085400;28;42873;-70
2022/10/31 04:12:27;;;;;;;7.32;2.65;;;2.70;99.90;;;-147.47;100.00;69272.31;5084394;28;41825;-69
2022/10/31 04:15:27;;;;;;;6.40;3.25;;;2.70;99.90;;;-147.47;100.00;69272.31;5080598;28;40986;-72
2022/10/31 04:17:59;;;;;;;9.65;3.38;;;2.60;99.90;;;-147.47;100.00;69272.31;5084249;28;40190;-70
2022/10/31 04:20:33;;;;;;;6.07;3.15;;;2.60;99.90;;;-147.47;100.00;69272.31;5104153;28;44373;-69
2022/10/31 04:23:05;;;;;;;10.13;3.20;;;2.60;99.90;;;-147.47;100.00;69272.31;5069577;28;50685;-69
2022/10/31 04:25:33;;;;;;;7.93;4.10;;;2.50;99.90;;;-147.47;100.00;69272.31;5104397;28;40012;-70
2022/10/31 04:28:02;;;;;;;8.48;4.80;;;2.50;99.90;;;-147.47;100.00;69272.31;5085656;28;39907;-70
2022/10/31 04:30:31;;;;;;;7.22;3.30;;;2.40;99.90;;;-147.47;100.00;69272.31;5086402;28;43382;-72
2022/10/31 04:33:01;;;;;;;7.82;3.15;;;2.50;99.90;;;-147.47;100.00;69272.31;5084196;28;41531;-69
2022/10/31 04:35:29;;;;;;;7.60;2.50;;;2.40;99.90;;;-147.47;100.00;69272.31;5070358;28;41160;-70
2022/10/31 04:37:58;;;;;;;7.50;2.28;;;2.40;99.90;;;-147.47;100.00;69272.31;5079821;28;233234;-69
2022/10/31 04:40:28;;;;;;;9.85;2.45;;;2.50;99.90;;;-147.47;100.00;69272.31;5084671;28;42282;-70
2022/10/31 04:42:57;;;;;;;8.18;2.40;;;2.50;99.90;;;-147.47;100.00;69272.31;5085018;28;41349;-68
2022/10/31 04:45:26;;;;;;;8.65;2.25;;;2.50;99.90;;;-147.47;100.00;69272.31;5104405;28;39928;-68
2022/10/31 04:47:55;;;;;;;6.97;1.95;;;2.50;99.90;;;-147.47;100.00;69272.31;5083872;28;41116;-69
2022/10/31 04:50:25;;;;;;;4.68;1.95;;;2.50;99.90;;;-147.47;100.00;69272.31;5103314;28;41778;-68
2022/10/31 04:52:53;;;;;;;7.40;2.25;;;2.50;99.90;;;-147.47;100.00;69272.31;5070248;28;41087;-67
2022/10/31 04:55:28;;;;;;;5.75;2.55;;;2.50;99.90;;;-147.47;100.00;69272.31;5103729;28;41014;-74
2022/10/31 04:58:14;;;;;;;4.53;2.25;;;2.50;99.90;;;-147.47;100.00;69272.31;5084811;28;40318;-72
2022/10/31 05:00:45;;;;;;;6.10;2.25;;;2.40;99.90;;;-147.47;100.00;69272.31;5103994;28;42096;-72
2022/10/31 05:03:14;;;;;;;5.45;2.05;;;2.40;99.90;;;-147.47;100.00;69272.31;5083053;28;41500;-72
2022/10/31 05:05:43;;;;;;;7.30;2.88;;;2.40;99.90;;;-147.47;100.00;69272.31;5103722;28;40149;-73
2022/10/31 05:08:11;;;;;;;5.47;2.22;;;2.40;99.90;;;-147.47;100.00;69272.31;5084796;28;41696;-71
2022/10/31 05:10:42;;;;;;;7.45;2.10;;;2.40;99.90;;;-147.47;100.00;69272.31;5084844;28;42106;-71
2022/10/31 05:13:11;;;;;;;7.07;2.60;;;2.40;99.90;;;-147.47;100.00;69272.31;4999220;28;1665987;-70
2022/10/31 05:16:11;;;;;;;9.40;3.40;;;2.40;95.40;;;-147.47;100.00;69272.31;5086992;28;39779;-70
2022/10/31 05:19:12;;;;;;;8.63;4.07;;;2.40;93.00;;;-147.47;100.00;69272.31;5063817;28;39936;-71
2022/10/31 05:22:07;;;;;;;6.53;2.88;;;2.40;83.70;;;-147.47;100.00;69272.31;5078134;28;43051;-70
2022/10/31 05:24:35;;;;;;;9.27;2.55;;;2.40;83.60;;;-147.47;100.00;69272.31;5083934;28;41987;-70
2022/10/31 05:27:05;;;;;;;10.27;3.42;;;2.40;83.70;;;-147.47;100.00;69272.31;5076900;28;614855;-71
2022/10/31 05:29:34;;;;;;;6.00;3.13;;;2.40;83.10;;;-147.47;100.00;69272.31;5084817;28;41192;-70
2022/10/31 05:32:03;;;;;;;4.60;2.63;;;2.40;78.30;;;-147.47;100.00;69272.31;5100960;28;42100;-72
2022/10/31 05:35:09;;;;;;;8.07;3.00;;;2.40;76.30;;;-147.47;100.00;69272.31;5044536;28;41459;-71
2022/10/31 05:37:57;;;;;;;7.45;3.17;;;2.40;71.30;;;-147.47;100.00;69272.31;5084938;28;41012;-71
2022/10/31 05:40:27;;;;;;;7.15;2.78;;;2.40;69.10;;;-147.47;100.00;69272.31;5084331;28;40144;-71
2022/10/31 05:42:59;;;;;;;7.75;4.18;;;2.40;64.90;;;-147.47;100.00;69272.31;5099576;28;41751;-71
2022/10/31 05:45:27;;;;;;;13.00;4.65;;;2.50;57.10;;;-147.47;100.00;69272.31;5103209;28;41784;-70
2022/10/31 05:48:03;;;;;;;13.73;4.78;;;2.50;48.00;;;-147.47;100.00;69272.31;5021793;28;1759871;-71
2022/10/31 05:50:44;;;;;;;24.15;8.77;;;2.60;40.50;;;-147.47;100.00;69272.31;5084221;28;40204;-70
2022/10/31 05:53:13;;;;;;;13.43;5.57;;;2.60;22.30;;;-147.47;100.00;69272.31;5103489;28;41742;-72
2022/10/31 05:55:43;;;;;;;7.65;2.97;;;2.60;1.00;;;-147.47;100.00;69272.31;5034359;28;1392881;-71
2022/10/31 05:58:23;;;;;;;8.13;2.92;;;2.80;1.00;;;-147.47;100.00;69272.31;5075883;28;131543;-71
2022/10/31 06:01:00;;;;;;;6.05;3.13;;;2.90;1.00;;;-147.47;100.00;69272.31;5085631;28;39747;-71
2022/10/31 06:03:29;;;;;;;7.40;2.42;;;3.00;1.00;;;-147.47;100.00;69272.31;5099498;28;42152;-70
2022/10/31 06:05:59;;;;;;;5.75;2.35;;;3.10;1.00;;;-147.47;100.00;69272.31;5084186;28;41727;-72
2022/10/31 06:08:32;;;;;;;4.68;2.08;;;3.10;1.00;;;-147.47;100.00;69272.31;5103168;28;41239;-69
2022/10/31 06:11:06;;;;;;;5.68;2.10;;;3.20;1.00;;;-147.47;100.00;69272.31;5085898;28;40714;-69
2022/10/31 06:13:55;;;;;;;;;;;3.20;1.00;;;-147.47;100.00;69272.31;5084531;28;42406;-68
2022/10/31 06:16:37;;;;;;;4.93;2.15;;;3.30;1.00;;;-147.47;100.00;69272.31;5086528;28;41277;-69
2022/10/31 06:19:26;;;;;;;5.07;2.50;;;3.30;1.00;;;-147.47;100.00;69272.31;5038089;28;1083718;-71
2022/10/31 06:22:10;;;;;;;8.18;2.63;;;3.40;1.00;;;-147.47;100.00;69272.31;3236097;28;37975247;-71
2022/10/31 06:25:43;;;;;;;7.75;2.63;;;3.50;1.00;;;-147.47;100.00;69272.31;2285237;28;69625583;-65
2022/10/31 06:28:14;;;;;;;1.00;0.90;;;3.60;1.00;;;-147.47;100.00;69272.31;47571;28;109562768;-66
2022/10/31 06:30:56;;;;;;;4.65;2.30;;;3.70;1.00;;;-147.47;100.00;69272.31;4638393;28;12299697;-67
2022/10/31 06:33:25;;;;;;;8.77;2.45;;;3.80;1.00;;;-147.47;100.00;69272.31;5096030;28;164270;-67
2022/10/31 06:35:59;;;;;;;5.97;2.50;;;3.80;1.00;;;-147.47;100.00;69272.31;5097675;28;164212;-65
2022/10/31 06:38:28;;;;;;;10.10;4.15;;;3.90;1.00;;;-147.47;100.00;69272.31;5047884;28;464325;-67
2022/10/31 06:40:58;;;;;;;7.00;3.33;;;3.90;1.00;;;-147.47;100.00;69272.31;5054150;28;464717;-68
2022/10/31 06:43:29;;;;;;;5.63;2.58;;;4.00;1.00;;;-147.47;100.00;69272.31;5036994;28;315476;-68
2022/10/31 06:46:22;;;;;;;7.00;2.70;;;4.10;1.00;;;-147.47;100.00;69272.31;5074059;28;189710;-67
2022/10/31 06:49:13;;;;;;;11.02;2.63;;;4.20;1.00;;;-147.47;100.00;69272.31;5054091;28;42922;-70
2022/10/31 06:51:52;;;;;;;6.05;2.08;;;4.10;1.00;;;-147.47;100.00;69272.31;5085630;28;43332;-66
2022/10/31 06:54:21;;;;;;;5.50;2.10;;;4.20;1.00;;;-147.47;100.00;69272.31;5087425;28;39951;-68
2022/10/31 06:56:50;;;;;;;5.70;2.17;;;4.30;1.00;;;-147.47;100.00;69272.31;5079340;28;164202;-66
2022/10/31 06:59:19;;;;;;;4.35;2.30;;;4.40;1.00;;;-147.47;100.00;69272.31;5058919;28;164790;-66
2022/10/31 07:02:21;;;;;;;5.45;2.42;;;4.50;1.00;;;-147.47;100.00;69272.31;5061009;28;41605;-66
2022/10/31 07:04:51;;;;;;;5.53;2.30;;;4.60;1.00;;;-147.47;100.00;69272.31;5057670;28;171569;-65
2022/10/31 07:07:21;;;;;;;5.97;2.45;;;4.60;1.00;;;-147.47;100.00;69272.31;5025891;28;886675;-69
2022/10/31 07:09:50;;;;;;;4.60;2.50;;;4.60;1.00;;;-147.47;100.00;69272.31;5064979;28;42326;-68
2022/10/31 07:12:22;;;;;;;5.03;2.10;;;4.70;1.00;;;-147.47;100.00;69272.31;5067426;28;40934;-69
2022/10/31 07:14:57;;;;;;;6.25;2.60;;;4.70;1.00;;;-147.47;100.00;69272.31;5065857;28;41206;-68
2022/10/31 07:17:27;;;;;;;4.97;1.80;;;4.80;1.00;;;-147.47;100.00;69272.31;4865476;28;3948500;-66
2022/10/31 07:19:58;;;;;;;4.57;2.13;;;4.90;1.00;;;-147.47;100.00;69272.31;5066128;28;60000;-68
2022/10/31 07:22:32;;;;;;;4.20;1.90;;;4.90;1.00;;;-147.47;100.00;69272.31;5051084;28;463619;-68
2022/10/31 07:25:01;;;;;;;6.30;3.05;;;4.90;1.00;;;-147.47;100.00;69272.31;5067111;28;39948;-70
2022/10/31 07:27:56;;;;;;;4.32;1.65;;;4.80;1.00;;;-147.47;100.00;69272.31;5047442;28;39712;-68
2022/10/31 07:30:24;;;;;;;6.20;2.20;;;4.90;1.00;;;-147.47;100.00;69272.31;5067994;28;41332;-69
2022/10/31 07:32:59;;;;;;;4.78;1.63;;;5.00;1.00;;;-147.47;100.00;69272.31;5050942;28;40030;-70
2022/10/31 07:35:42;;;;;;;7.85;2.00;;;5.00;1.00;;;-147.47;100.00;69272.31;5066400;28;40724;-68
2022/10/31 07:38:12;;;;;;;6.75;2.92;;;5.00;1.00;;;-147.47;100.00;69272.31;5063823;28;39933;-69
2022/10/31 07:40:41;;;;;;;7.07;2.28;;;5.10;1.00;;;-147.47;100.00;69272.31;5067755;28;41652;-70
2022/10/31 07:43:12;;;;;;;6.85;2.30;;;5.00;1.00;;;-147.47;100.00;69272.31;5065034;28;41435;-69
2022/10/31 07:46:13;;;;;;;6.00;2.28;;;5.20;1.00;;;-147.47;100.00;69272.31;5051960;28;170137;-68
2022/10/31 07:49:02;;;;;;;7.00;2.92;;;5.30;1.00;;;-147.47;100.00;69272.31;5065457;28;40133;-68
2022/10/31 07:51:49;;;;;;;6.75;2.30;;;5.30;1.00;;;-147.47;100.00;69272.31;5065780;28;41924;-69
2022/10/31 07:54:36;;;;;;;7.00;2.73;;;5.40;1.00;;;-147.47;100.00;69272.31;5065407;28;42413;-68
2022/10/31 07:57:04;;;;;;;6.05;1.77;;;5.40;1.00;;;-147.47;100.00;69272.31;5067661;28;39928;-68
2022/10/31 07:59:33;;;;;;;4.70;2.10;;;5.40;1.00;;;-147.47;100.00;69272.31;5064597;28;41042;-69
2022/10/31 08:02:02;;;;;;;8.98;2.78;;;5.40;1.00;;;-147.47;100.00;69272.31;5067619;28;41632;-68
2022/10/31 08:04:32;;;;;;;8.98;3.70;;;5.60;1.00;;;-147.47;100.00;69272.31;5068982;28;41105;-67
2022/10/31 08:07:23;;;;;;;11.20;5.47;;;5.70;1.00;;;-147.47;100.00;69272.31;5048449;28;39602;-68
2022/10/31 08:09:58;;;;;;;7.05;2.75;;;5.90;1.00;;;-147.47;100.00;69272.31;5067448;28;39991;-69
2022/10/31 08:12:31;;;;;;;6.65;2.58;;;5.80;1.00;;;-147.47;100.00;69272.31;5064241;28;42265;-68
2022/10/31 08:15:00;;;;;;;7.18;2.35;;;5.90;1.00;;;-147.47;100.00;69272.31;5067320;28;40950;-68
2022/10/31 08:17:29;;;;;;;7.15;3.10;;;5.90;1.00;;;-147.47;100.00;69272.31;5065210;28;40803;-68
2022/10/31 08:20:01;;;;;;;6.25;2.40;;;5.80;1.00;;;-147.47;100.00;69272.31;5067321;28;39904;-67
2022/10/31 08:22:34;;;;;;;5.55;2.08;;;5.90;1.00;;;-147.47;100.00;69272.31;5064127;28;41772;-70
2022/10/31 08:25:04;;;;;;;6.82;2.10;;;6.00;1.00;;;-147.47;100.00;69272.31;5067165;28;40804;-71
2022/10/31 08:27:33;;;;;;;5.32;2.20;;;6.00;1.00;;;-147.47;100.00;69272.31;5064107;28;41347;-69
2022/10/31 08:30:02;;;;;;;6.35;2.40;;;6.10;1.00;;;-147.47;100.00;69272.31;5063945;28;40479;-72
2022/10/31 08:32:31;;;;;;;4.78;1.75;;;6.10;1.00;;;-147.47;100.00;69272.31;5064168;28;42292;-68
2022/10/31 08:35:20;;;;;;;12.82;7.07;;;6.20;1.00;;;-147.47;100.00;69272.31;5065034;28;42725;-68
2022/10/31 08:38:15;;;;;;;7.50;2.53;;;6.30;1.00;;;-147.47;100.00;69272.31;5058113;28;41217;-68
2022/10/31 08:40:44;;;;;;;8.75;3.63;;;6.40;1.00;;;-147.47;100.00;69272.31;5063320;28;40565;-70
2022/10/31 08:43:15;;;;;;;10.70;3.30;;;6.40;1.00;;;-147.47;100.00;69272.31;5064190;28;41944;-68
2022/10/31 08:45:45;;;;;;;7.70;2.63;;;6.40;1.00;;;-147.47;100.00;69272.31;5063253;28;42256;-69
2022/10/31 08:48:21;;;;;;;7.53;4.35;;;6.50;1.00;;;-147.47;100.00;69272.31;5077511;28;40808;-68
2022/10/31 08:50:51;;;;;;;7.38;3.35;;;6.50;1.00;;;-147.47;100.00;69272.31;5086862;28;40423;-68
2022/10/31 08:53:21;;;;;;;5.78;2.50;;;6.70;1.00;;;-147.47;100.00;69272.31;5083672;28;42917;-68
2022/10/31 08:56:00;;;;;;;4.43;2.03;;;6.80;1.00;;;-147.47;100.00;69272.31;5083429;28;42471;-69
2022/10/31 08:58:29;;;;;;;11.55;4.32;;;6.70;1.00;;;-147.47;100.00;69272.31;5103740;28;40287;-69
2022/10/31 09:01:03;;;;;;;14.55;7.65;;;6.70;1.00;;;-147.47;100.00;69272.31;5101637;28;43097;-69
2022/10/31 09:03:32;;;;;;;9.95;3.50;;;6.80;1.00;;;-147.47;100.00;69272.31;5103519;28;42330;-68
2022/10/31 09:06:08;;;;;;;8.77;3.83;;;6.80;1.00;;;-147.47;100.00;69272.31;5083381;28;41280;-68
2022/10/31 09:08:37;;;;;;;13.52;6.10;;;6.90;1.00;;;-147.47;100.00;69272.31;5084400;28;40330;-68
2022/10/31 09:11:07;;;;;;;7.32;3.00;;;7.10;1.00;;;-147.47;100.00;69272.31;5086648;28;39577;-68
2022/10/31 09:13:58;;;;;;;7.57;2.92;;;7.00;1.00;;;-147.47;100.00;69272.31;5076262;28;42137;-68
2022/10/31 09:16:47;;;;;;;7.32;2.67;;;7.00;1.00;;;-147.47;100.00;69272.31;5087040;28;41044;-69
2022/10/31 09:19:22;;;;;;;4.80;1.92;;;7.00;1.00;;;-147.47;100.00;69272.31;5086162;28;40759;-68
2022/10/31 09:21:55;;;;;;;4.60;1.95;;;7.00;1.00;;;-147.47;100.00;69272.31;5084440;28;40793;-68
2022/10/31 09:24:24;;;;;;;16.40;9.02;;;7.20;1.00;;;-147.47;100.00;69272.31;5086269;28;42510;-69
2022/10/31 09:26:55;;;;;;;9.80;3.72;;;7.30;1.00;;;-147.47;100.00;69272.31;5069214;28;41899;-68
2022/10/31 09:29:28;;;;;;;5.97;3.47;;;7.30;1.00;;;-147.47;100.00;69272.31;5084876;28;40139;-68
2022/10/31 09:32:01;;;;;;;9.13;2.40;;;7.40;1.00;;;-147.47;100.00;69272.31;5085312;28;39558;-69
2022/10/31 09:34:31;;;;;;;5.88;1.88;;;7.60;1.00;;;-147.47;100.00;69272.31;5100225;28;42844;-69
2022/10/31 09:37:09;;;;;;;5.38;1.70;;;7.60;1.00;;;-147.47;100.00;69272.31;5100366;28;42509;-69
2022/10/31 09:39:38;;;;;;;8.50;3.83;;;7.60;1.00;;;-147.47;100.00;69272.31;5086721;28;39957;-68
2022/10/31 09:42:53;;;;;;;6.60;2.40;;;7.80;1.00;;;-147.47;100.00;69272.31;5100664;28;40032;-69
2022/10/31 09:45:32;;;;;;;7.15;3.28;;;7.80;1.00;;;-147.47;100.00;69272.31;5081303;28;42465;-70
2022/10/31 09:48:44;;;;;;;5.53;2.00;;;7.90;1.00;;;-147.47;100.00;69272.31;5082619;28;40974;-68
2022/10/31 09:51:25;;;;;;;13.40;6.10;;;7.90;1.00;;;-147.47;100.00;69272.31;5055314;28;39510;-69
2022/10/31 09:54:09;;;;;;;7.10;2.95;;;8.00;1.00;;;-147.47;100.00;69272.31;5066221;28;40197;-69
2022/10/31 09:56:39;;;;;;;3.17;1.65;;;8.10;1.00;;;-147.47;100.00;69272.31;5069282;28;42740;-70
2022/10/31 09:59:25;;;;;;;3.70;1.50;;;8.10;1.00;;;-147.47;100.00;69272.31;5083083;28;42383;-67
2022/10/31 10:02:00;;;;;;;5.05;1.70;;;8.10;1.00;;;-147.47;100.00;69272.31;5082928;28;41665;-68
2022/10/31 10:04:43;;;;;;;6.53;2.40;;;8.20;1.00;;;-147.47;100.00;69272.31;5069429;28;39401;-69
2022/10/31 10:07:50;;;;;;;5.90;1.92;;;8.10;1.00;;;-147.47;100.00;69272.31;5066053;28;42713;-69
2022/10/31 10:10:50;;;;;;;5.20;2.17;;;8.30;1.00;;;-147.47;100.00;69272.31;5067468;28;41612;-68
2022/10/31 10:13:57;;;;;;;5.72;2.63;;;8.50;1.00;;;-147.47;100.00;69272.31;5068970;28;39611;-69
2022/10/31 10:16:42;;;;;;;9.02;2.50;;;8.90;1.00;;;-147.47;100.00;69272.31;5066624;28;40969;-70
2022/10/31 10:19:54;;;;;;;3.25;1.48;;;8.90;1.00;;;-147.47;100.00;69272.31;5087217;28;42168;-70
2022/10/31 10:22:33;;;;;;;8.18;2.17;;;8.80;1.00;;;-147.47;100.00;69272.31;5087493;28;41199;-71
2022/10/31 10:25:16;;;;;;;6.32;2.67;;;8.70;1.00;;;-147.47;100.00;69272.31;5087341;28;40457;-69
2022/10/31 10:28:04;;;;;;;4.70;1.90;;;8.80;1.00;;;-147.47;100.00;69272.31;5086784;28;41241;-70
2022/10/31 10:30:40;;;;;;;4.97;2.05;;;8.80;1.00;;;-147.47;100.00;69272.31;5087210;28;42520;-68
2022/10/31 10:33:15;;;;;;;5.07;2.25;;;8.90;1.00;;;-147.47;100.00;69272.31;5087016;28;41496;-70
2022/10/31 10:35:48;;;;;;;6.00;2.30;;;8.90;1.00;;;-147.47;100.00;69272.31;5086581;28;40379;-69
2022/10/31 10:38:24;;;;;;;8.00;2.63;;;9.00;1.00;;;-147.47;100.00;69272.31;5085748;28;41002;-69
2022/10/31 10:40:55;;;;;;;7.35;2.83;;;8.80;1.00;;;-147.47;100.00;69272.31;5086366;28;42043;-71
2022/10/31 10:43:31;;;;;;;6.60;2.15;;;9.10;1.00;;;-147.47;100.00;69272.31;5087064;28;42225;-70
2022/10/31 10:49:16;;;;;;;5.82;2.45;;;8.90;1.00;;;-147.47;100.00;69272.31;5085693;28;39620;-69
2022/10/31 10:51:48;;;;;;;6.47;2.08;;;9.00;1.00;;;-147.47;100.00;69272.31;5085896;28;42819;-69